Time;durP1;ratioP1;P1;durP2;ratioP2;P2;SDS_P1;SDS_P2;PMS_P1;PMS_P2;Temp;Humidity;BMP_temperature;BMP_pressure;BME280_temperature;BME280_humidity;BME280_pressure;Samples;Min_cycle;Max_cycle;Signal;HPM_P1;HPM_P2
2022/11/03 00:00:40;;;;;;;;;;;;;;;14.83;96.50;100204.13;7358387;19;20366;-56
2022/11/03 00:03:07;;;;;;;;;;;;;;;14.85;96.31;100198.66;7360842;19;20030;-56
2022/11/03 00:08:05;;;;;;;;;;;;;;;14.85;97.03;100207.41;7363062;19;21208;-57
2022/11/03 00:10:32;;;;;;;;;;;;;;;14.86;97.29;100209.06;7359320;19;21005;-57
2022/11/03 00:12:59;;;;;;;;;;;;;;;14.86;96.95;100211.69;7359428;19;19949;-55
2022/11/03 00:15:26;;;;;;;;;;;;;;;14.85;96.88;100218.00;7358463;19;19922;-57
2022/11/03 00:17:53;;;;;;;;;;;;;;;14.87;97.66;100223.13;7363708;19;19934;-57
2022/11/03 00:20:20;;;;;;;;;;;;;;;14.89;97.82;100213.94;7360370;19;19918;-58
2022/11/03 00:22:46;;;;;;;;;;;;;;;14.88;97.74;100211.53;7356842;19;19921;-58
2022/11/03 00:25:13;;;;;;;;;;;;;;;14.89;97.89;100202.53;7361762;19;19952;-58
2022/11/03 00:27:40;;;;;;;;;;;;;;;14.88;97.92;100195.63;7359313;19;19933;-58
2022/11/03 00:30:07;;;;;;;;;;;;;;;14.88;97.68;100198.28;7355719;19;19914;-57
2022/11/03 00:32:34;;;;;;;;;;;;;;;14.88;98.11;100206.22;7361688;19;19923;-53
2022/11/03 00:35:01;;;;;;;;;;;;;;;14.91;98.78;100214.59;7357338;19;20225;-59
2022/11/03 00:37:28;;;;;;;;;;;;;;;14.91;98.78;100211.94;7363306;19;19929;-58
2022/11/03 00:39:55;;;;;;;;;;;;;;;14.90;98.54;100209.47;7360229;19;19929;-59
2022/11/03 00:42:22;;;;;;;;;;;;;;;14.88;98.64;100214.97;7356054;19;19922;-59
2022/11/03 00:44:49;;;;;;;;;;;;;;;14.90;99.00;100206.81;7358714;19;19919;-59
2022/11/03 00:47:16;;;;;;;;;;;;;;;14.92;99.29;100208.28;7361780;19;20308;-57
2022/11/03 00:49:49;;;;;;;;;;;;;;;14.93;99.04;100217.03;7359265;19;20582;-57
2022/11/03 00:52:17;;;;;;;;;;;;;;;14.90;99.11;100212.94;7359862;19;19918;-57
2022/11/03 00:54:44;;;;;;;;;;;;;;;14.93;99.37;100214.41;7362539;19;19933;-58
2022/11/03 00:57:14;;;;;;;;;;;;;;;14.95;99.27;100204.41;7360298;19;19927;-59
2022/11/03 00:59:41;;;;;;;;;;;;;;;14.98;99.28;100191.56;7359465;19;19918;-57
2022/11/03 01:02:07;;;;;;;;;;;;;;;14.98;98.97;100196.09;7360289;19;19927;-57
2022/11/03 01:07:05;;;;;;;;;;;;;;;14.99;98.49;100187.09;7361933;19;20329;-58
2022/11/03 01:09:35;;;;;;;;;;;;;;;15.02;98.35;100175.31;7362271;19;19938;-58
2022/11/03 01:12:02;;;;;;;;;;;;;;;15.02;98.20;100167.34;7355537;19;19950;-59
2022/11/03 01:14:32;;;;;;;;;;;;;;;15.00;97.83;100170.19;7355858;19;19926;-55
2022/11/03 01:16:59;;;;;;;;;;;;;;;14.98;97.48;100180.97;7361218;19;19926;-57
2022/11/03 01:19:26;;;;;;;;;;;;;;;14.95;97.58;100170.78;7360108;19;19941;-57
2022/11/03 01:21:54;;;;;;;;;;;;;;;14.96;97.58;100166.31;7359721;19;19918;-59
2022/11/03 01:24:21;;;;;;;;;;;;;;;14.95;97.25;100160.19;7356581;19;19958;-58
2022/11/03 01:26:48;;;;;;;;;;;;;;;14.94;96.96;100161.19;7355416;19;19933;-55
2022/11/03 01:29:15;;;;;;;;;;;;;;;14.94;96.83;100150.59;7359614;19;19918;-58
2022/11/03 01:31:42;;;;;;;;;;;;;;;14.93;96.42;100166.72;7355658;19;19947;-56
2022/11/03 01:34:12;;;;;;;;;;;;;;;14.93;96.49;100164.84;7358772;19;19923;-55
2022/11/03 01:36:39;;;;;;;;;;;;;;;14.93;97.04;100180.75;7357863;19;19919;-56
2022/11/03 01:39:08;;;;;;;;;;;;;;;14.94;97.29;100158.53;7357410;19;19926;-58
2022/11/03 01:41:35;;;;;;;;;;;;;;;14.94;97.51;100158.53;7356668;19;19923;-58
2022/11/03 01:44:05;;;;;;;;;;;;;;;14.91;97.24;100172.19;7357217;19;19929;-58
2022/11/03 01:46:33;;;;;;;;;;;;;;;14.87;97.10;100164.84;7358345;19;20432;-57
2022/11/03 01:49:03;;;;;;;;;;;;;;;14.89;97.60;100158.31;7359406;19;19918;-59
2022/11/03 01:51:31;;;;;;;;;;;;;;;14.88;97.77;100151.38;7357300;19;19929;-59
2022/11/03 01:54:00;;;;;;;;;;;;;;;14.88;97.65;100132.84;7358987;19;19930;-58
2022/11/03 01:56:29;;;;;;;;;;;;;;;14.87;97.52;100133.06;7354980;19;20020;-58
2022/11/03 01:58:58;;;;;;;;;;;;;;;14.86;97.56;100128.75;7351706;19;19939;-58
2022/11/03 02:01:26;;;;;;;;;;;;;;;14.85;97.38;100120.00;7358912;19;19946;-55
2022/11/03 02:03:56;;;;;;;;;;;;;;;14.84;97.66;100105.13;7358400;19;19960;-62
2022/11/03 02:06:24;;;;;;;;;;;;;;;14.84;97.78;100097.16;7358659;19;19966;-59
2022/11/03 02:08:55;;;;;;;;;;;;;;;14.82;97.66;100090.44;7357338;19;19923;-59
2022/11/03 02:13:57;;;;;;;;;;;;;;;14.79;97.98;100082.88;7358382;19;19971;-57
2022/11/03 02:16:25;;;;;;;;;;;;;;;14.76;97.99;100072.69;7357450;19;20645;-59
2022/11/03 02:18:53;;;;;;;;;;;;;;;14.76;98.09;100068.22;7358844;19;19921;-55
2022/11/03 02:21:29;;;;;;;;;;;;;;;14.77;97.99;100064.56;7357886;19;19929;-57
2022/11/03 02:24:01;;;;;;;;;;;;;;;14.77;97.88;100048.69;7354402;19;20312;-58
2022/11/03 02:26:28;;;;;;;;;;;;;;;14.77;97.80;100047.84;7363686;19;19930;-58
2022/11/03 02:28:54;;;;;;;;;;;;;;;14.76;97.75;100043.56;7362803;19;19926;-58
2022/11/03 02:31:31;;;;;;;;;;;;;;;14.75;97.99;100036.63;7363563;19;19918;-59
2022/11/03 02:34:05;;;;;;;;;;;;;;;14.78;98.64;100036.25;7367159;19;19930;-57
2022/11/03 02:36:42;;;;;;;;;;;;;;;14.78;98.80;100031.75;7369912;19;20488;-57
2022/11/03 02:39:09;;;;;;;;;;;;;;;14.76;98.52;100030.31;7367241;19;19975;-56
2022/11/03 02:41:37;;;;;;;;;;;;;;;14.74;98.53;100017.28;7364484;19;20364;-57
2022/11/03 02:44:06;;;;;;;;;;;;;;;14.73;98.44;100015.63;7362511;19;19925;-56
2022/11/03 02:46:33;;;;;;;;;;;;;;;14.70;98.49;100010.75;7366152;19;19923;-54
2022/11/03 02:49:00;;;;;;;;;;;;;;;14.71;98.88;100012.38;7359417;19;19931;-54
2022/11/03 02:51:27;;;;;;;;;;;;;;;14.69;98.74;99998.53;7363449;19;20838;-57
2022/11/03 02:54:05;;;;;;;;;;;;;;;14.70;98.63;99994.03;7365579;19;19946;-57
2022/11/03 02:56:36;;;;;;;;;;;;;;;14.70;98.67;99994.03;7364278;19;19922;-58
2022/11/03 02:59:09;;;;;;;;;;;;;;;14.69;98.85;99987.94;7363689;19;19926;-56
2022/11/03 03:01:45;;;;;;;;;;;;;;;14.68;99.07;99982.84;7365755;19;19926;-57
2022/11/03 03:04:16;;;;;;;;;;;;;;;14.68;99.52;99994.22;7363550;19;19918;-57
2022/11/03 03:06:47;;;;;;;;;;;;;;;14.70;99.87;99994.03;7360232;19;21611;-59
2022/11/03 03:09:18;;;;;;;;;;;;;;;14.69;99.61;99972.03;7366535;19;19950;-59
2022/11/03 03:11:50;;;;;;;;;;;;;;;14.68;99.74;99957.16;7358418;19;20014;-58
2022/11/03 03:14:20;;;;;;;;;;;;;;;14.66;99.51;99948.63;7364631;19;20249;-58
2022/11/03 03:16:48;;;;;;;;;;;;;;;14.64;99.85;99926.00;7361913;19;19918;-57
2022/11/03 03:19:15;;;;;;;;;;;;;;;14.65;100.00;99920.50;7363858;19;19937;-57
2022/11/03 03:21:43;;;;;;;;;;;;;;;14.64;100.00;99920.69;7360346;19;19930;-57
2022/11/03 03:24:18;;;;;;;;;;;;;;;14.61;100.00;99906.03;7359933;19;19933;-58
2022/11/03 03:26:48;;;;;;;;;;;;;;;14.60;100.00;99907.06;7360315;19;19922;-56
2022/11/03 03:29:18;;;;;;;;;;;;;;;14.60;100.00;99893.00;7360323;19;19930;-59
2022/11/03 03:31:47;;;;;;;;;;;;;;;14.62;100.00;99893.63;7363963;19;19922;-56
2022/11/03 03:34:15;;;;;;;;;;;;;;;14.61;100.00;99876.91;7359244;19;19957;-59
2022/11/03 03:37:02;;;;;;;;;;;;;;;14.64;100.00;99878.34;7361259;19;20336;-59
2022/11/03 03:39:31;;;;;;;;;;;;;;;14.63;100.00;99866.94;7359790;19;19921;-58
2022/11/03 03:42:00;;;;;;;;;;;;;;;14.63;100.00;99864.28;7359407;19;19933;-58
2022/11/03 03:44:27;;;;;;;;;;;;;;;14.62;100.00;99854.72;7358135;19;19929;-59
2022/11/03 03:46:58;;;;;;;;;;;;;;;14.61;100.00;99862.88;7361235;19;19934;-55
2022/11/03 03:49:25;;;;;;;;;;;;;;;14.63;100.00;99850.25;7362308;19;19930;-56
2022/11/03 03:51:52;;;;;;;;;;;;;;;14.66;100.00;99833.94;7360725;19;19934;-59
2022/11/03 03:54:18;;;;;;;;;;;;;;;14.69;100.00;99831.69;7359925;19;20555;-57
2022/11/03 03:56:55;;;;;;;;;;;;;;;14.69;100.00;99820.28;7357858;19;19945;-59
2022/11/03 03:59:21;;;;;;;;;;;;;;;14.68;100.00;99819.47;7360130;19;20318;-57
2022/11/03 04:01:48;;;;;;;;;;;;;;;14.69;100.00;99817.63;7361790;19;19919;-58
2022/11/03 04:04:15;;;;;;;;;;;;;;;14.68;100.00;99816.03;7361089;19;19923;-58
2022/11/03 04:06:42;;;;;;;;;;;;;;;14.70;100.00;99803.38;7361292;19;20261;-57
2022/11/03 04:09:09;;;;;;;;;;;;;;;14.72;100.00;99804.81;7360135;19;20597;-57
2022/11/03 04:24:40;;;;;;;;;;;;;;;14.80;100.00;99801.13;7361899;19;19922;-57
2022/11/03 04:27:19;;;;;;;;;;;;;;;14.84;100.00;99787.28;7358002;19;19931;-58
2022/11/03 04:29:46;;;;;;;;;;;;;;;14.86;100.00;99787.88;7357939;19;19922;-57
2022/11/03 04:32:15;;;;;;;;;;;;;;;14.88;100.00;99793.78;7362993;19;19942;-59
2022/11/03 04:34:42;;;;;;;;;;;;;;;14.88;100.00;99771.81;7361584;19;20379;-57
2022/11/03 04:37:11;;;;;;;;;;;;;;;14.89;100.00;99763.63;7361325;19;19943;-58
2022/11/03 04:39:37;;;;;;;;;;;;;;;14.90;100.00;99764.44;7359697;19;19926;-57
2022/11/03 04:42:14;;;;;;;;;;;;;;;14.89;100.00;99771.56;7361344;19;19923;-58
2022/11/03 04:44:40;;;;;;;;;;;;;;;14.89;100.00;99773.41;7357626;19;19919;-57
2022/11/03 04:47:10;;;;;;;;;;;;;;;14.88;100.00;99763.84;7356612;19;19923;-59
2022/11/03 04:49:37;;;;;;;;;;;;;;;14.85;100.00;99762.41;7359373;19;19926;-57
2022/11/03 04:52:11;;;;;;;;;;;;;;;14.84;100.00;99754.66;7363250;19;19918;-56
2022/11/03 04:54:38;;;;;;;;;;;;;;;14.84;100.00;99754.66;7360209;19;20351;-53
2022/11/03 04:57:10;;;;;;;;;;;;;;;14.83;100.00;99753.84;7361747;19;19950;-56
2022/11/03 04:59:37;;;;;;;;;;;;;;;14.81;100.00;99747.97;7358301;19;19923;-57
2022/11/03 05:02:08;;;;;;;;;;;;;;;14.82;100.00;99743.50;7362262;19;19918;-58
2022/11/03 05:04:55;;;;;;;;;;;;;;;14.83;100.00;99734.53;7356523;19;21039;-59
2022/11/03 05:07:31;;;;;;;;;;;;;;;14.83;100.00;99724.72;7362345;19;19918;-55
2022/11/03 05:09:58;;;;;;;;;;;;;;;14.84;100.00;99710.47;7362069;19;19922;-58
2022/11/03 05:12:25;;;;;;;;;;;;;;;14.87;100.00;99725.13;7358517;19;19925;-58
2022/11/03 05:14:52;;;;;;;;;;;;;;;14.90;100.00;99712.28;7358304;19;19933;-57
2022/11/03 05:17:25;;;;;;;;;;;;;;;14.90;100.00;99716.75;7360295;19;20612;-57
2022/11/03 05:19:57;;;;;;;;;;;;;;;14.93;100.00;99703.13;7357676;19;19929;-58
2022/11/03 05:22:25;;;;;;;;;;;;;;;14.92;100.00;99702.31;7359429;19;19926;-59
2022/11/03 05:24:55;;;;;;;;;;;;;;;14.93;100.00;99703.91;7359187;19;19930;-59
2022/11/03 05:27:22;;;;;;;;;;;;;;;14.94;100.00;99702.06;7358235;19;19926;-58
2022/11/03 05:29:52;;;;;;;;;;;;;;;14.95;100.00;99699.22;7359298;19;21608;-56
2022/11/03 05:32:26;;;;;;;;;;;;;;;14.94;100.00;99684.34;7362056;19;20478;-56
2022/11/03 05:34:54;;;;;;;;;;;;;;;14.91;100.00;99681.31;7360076;19;19919;-58
2022/11/03 05:37:31;;;;;;;;;;;;;;;14.84;100.00;99675.22;7360012;19;20024;-55
2022/11/03 05:39:59;;;;;;;;;;;;;;;14.79;100.00;99693.56;7360533;19;19934;-59
2022/11/03 05:42:29;;;;;;;;;;;;;;;14.78;100.00;99673.44;7356240;19;19927;-55
2022/11/03 05:44:56;;;;;;;;;;;;;;;14.77;100.00;99663.84;7359374;19;20504;-58
2022/11/03 05:47:25;;;;;;;;;;;;;;;14.73;99.99;99662.66;7357078;19;19934;-55
2022/11/03 05:49:53;;;;;;;;;;;;;;;14.69;99.95;99675.47;7362994;19;19919;-56
2022/11/03 05:52:23;;;;;;;;;;;;;;;14.68;100.00;99665.88;7359135;19;19938;-52
2022/11/03 05:54:51;;;;;;;;;;;;;;;14.66;100.00;99659.19;7357639;19;20252;-57
2022/11/03 05:57:18;;;;;;;;;;;;;;;14.61;100.00;99656.34;7357909;19;19939;-57
2022/11/03 05:59:46;;;;;;;;;;;;;;;14.55;100.00;99660.66;7355998;19;20009;-58
2022/11/03 06:02:22;;;;;;;;;;;;;;;14.50;100.00;99648.03;7355554;19;19926;-55
2022/11/03 06:04:49;;;;;;;;;;;;;;;14.51;100.00;99639.06;7357941;19;19982;-55
2022/11/03 06:07:25;;;;;;;;;;;;;;;14.49;100.00;99638.47;7358051;19;19923;-57
2022/11/03 06:09:52;;;;;;;;;;;;;;;14.48;100.00;99631.53;7360113;19;20071;-58
2022/11/03 06:12:21;;;;;;;;;;;;;;;14.44;100.00;99634.81;7356502;19;19926;-58
2022/11/03 06:14:48;;;;;;;;;;;;;;;14.45;100.00;99636.44;7358567;19;19983;-58
2022/11/03 06:17:20;;;;;;;;;;;;;;;14.46;100.00;99646.00;7358801;19;19925;-59
2022/11/03 06:19:48;;;;;;;;;;;;;;;14.40;100.00;99642.34;7358511;19;19930;-54
2022/11/03 06:22:25;;;;;;;;;;;;;;;14.40;100.00;99670.66;7358416;19;19926;-55
2022/11/03 06:24:57;;;;;;;;;;;;;;;14.32;100.00;99637.25;7358900;19;19953;-56
2022/11/03 06:27:26;;;;;;;;;;;;;;;14.22;99.27;99650.06;7356446;19;19923;-53
2022/11/03 06:29:56;;;;;;;;;;;;;;;14.12;98.75;99658.44;7357596;19;19930;-55
2022/11/03 06:32:23;;;;;;;;;;;;;;;14.07;99.20;99660.88;7357198;19;19926;-57
2022/11/03 06:34:53;;;;;;;;;;;;;;;14.05;99.54;99672.69;7359352;19;19925;-57
2022/11/03 06:37:24;;;;;;;;;;;;;;;14.02;99.47;99667.78;7359608;19;19929;-58
2022/11/03 06:39:57;;;;;;;;;;;;;;;13.98;99.54;99677.97;7355603;19;19941;-57
2022/11/03 06:42:25;;;;;;;;;;;;;;;13.94;98.99;99652.13;7356522;19;20598;-58
2022/11/03 06:44:57;;;;;;;;;;;;;;;13.90;98.20;99646.44;7358009;19;19915;-56
2022/11/03 06:47:25;;;;;;;;;;;;;;;13.86;98.40;99647.06;7356106;19;19922;-59
2022/11/03 06:49:54;;;;;;;;;;;;;;;13.84;99.08;99655.19;7356665;19;20240;-57
2022/11/03 06:52:31;;;;;;;;;;;;;;;13.88;99.62;99666.16;7357786;19;20034;-56
2022/11/03 06:55:13;;;;;;;;;;;;;;;13.87;99.82;99673.28;7359547;19;19918;-54
2022/11/03 06:57:45;;;;;;;;;;;;;;;13.87;99.80;99662.69;7354173;19;19967;-59
2022/11/03 07:00:13;;;;;;;;;;;;;;;13.86;99.76;99652.34;7355414;19;19962;-58
2022/11/03 07:02:59;;;;;;;;;;;;;;;13.88;100.00;99656.41;7358365;19;19919;-55
2022/11/03 07:05:28;;;;;;;;;;;;;;;13.90;100.00;99646.44;7355909;19;19914;-59
2022/11/03 07:07:57;;;;;;;;;;;;;;;13.92;99.82;99643.56;7356975;19;19919;-59
2022/11/03 07:10:26;;;;;;;;;;;;;;;13.91;99.71;99631.41;7357937;19;19923;-60
2022/11/03 07:12:53;;;;;;;;;;;;;;;13.89;99.47;99615.72;7362836;19;19949;-58
2022/11/03 07:15:24;;;;;;;;;;;;;;;13.88;98.84;99637.06;7362810;19;20388;-57
2022/11/03 07:17:51;;;;;;;;;;;;;;;13.86;98.52;99650.53;7365206;19;19918;-58
2022/11/03 07:20:18;;;;;;;;;;;;;;;13.86;98.49;99665.56;7362186;19;20331;-57
2022/11/03 07:22:46;;;;;;;;;;;;;;;13.83;97.81;99674.72;7368086;19;19930;-57
2022/11/03 07:25:18;;;;;;;;;;;;;;;13.83;98.02;99680.00;7364935;19;20025;-58
2022/11/03 07:27:47;;;;;;;;;;;;;;;13.81;98.32;99668.00;7361421;19;19982;-55
2022/11/03 07:30:17;;;;;;;;;;;;;;;13.81;98.77;99652.97;7364183;19;20333;-59
2022/11/03 07:32:45;;;;;;;;;;;;;;;13.83;99.04;99650.91;7366605;19;19927;-57
2022/11/03 07:35:21;;;;;;;;;;;;;;;13.86;99.50;99655.00;7363798;19;20287;-60
2022/11/03 07:37:49;;;;;;;;;;;;;;;13.87;99.59;99660.06;7365461;19;20486;-58
2022/11/03 07:40:17;;;;;;;;;;;;;;;13.91;99.72;99671.88;7366486;19;19973;-57
2022/11/03 07:42:44;;;;;;;;;;;;;;;13.89;99.89;99676.53;7361350;19;20668;-57
2022/11/03 07:45:21;;;;;;;;;;;;;;;13.88;99.59;99677.56;7358862;19;20549;-59
2022/11/03 07:47:48;;;;;;;;;;;;;;;13.87;99.51;99675.09;7364617;19;19948;-57
2022/11/03 07:50:15;;;;;;;;;;;;;;;13.87;99.75;99680.41;7364382;19;20010;-57
2022/11/03 07:52:42;;;;;;;;;;;;;;;13.91;100.00;99677.16;7364554;19;19922;-58
2022/11/03 07:55:10;;;;;;;;;;;;;;;13.94;99.89;99678.59;7364239;19;20286;-58
2022/11/03 07:57:38;;;;;;;;;;;;;;;13.92;99.74;99670.03;7357767;19;19960;-56
2022/11/03 08:00:06;;;;;;;;;;;;;;;13.90;99.77;99661.50;7360698;19;19998;-57
2022/11/03 08:02:46;;;;;;;;;;;;;;;13.90;99.48;99658.84;7360409;19;20496;-59
2022/11/03 08:05:13;;;;;;;;;;;;;;;13.90;99.56;99650.91;7357344;19;19930;-54
2022/11/03 08:07:40;;;;;;;;;;;;;;;13.90;99.80;99648.28;7362530;19;19926;-58
2022/11/03 08:10:07;;;;;;;;;;;;;;;13.90;99.34;99649.09;7364353;19;19927;-59
2022/11/03 08:12:36;;;;;;;;;;;;;;;13.87;98.79;99646.84;7359987;19;20336;-57
2022/11/03 08:15:03;;;;;;;;;;;;;;;13.87;98.86;99656.59;7361857;19;19922;-58
2022/11/03 08:17:31;;;;;;;;;;;;;;;13.83;98.39;99652.75;7359967;19;19956;-57
2022/11/03 08:19:59;;;;;;;;;;;;;;;13.82;98.69;99648.47;7361219;19;20356;-56
2022/11/03 08:22:26;;;;;;;;;;;;;;;13.82;99.07;99653.75;7349824;19;19923;-56
2022/11/03 08:24:53;;;;;;;;;;;;;;;13.81;99.09;99650.31;7345320;19;19943;-59
2022/11/03 08:27:20;;;;;;;;;;;;;;;13.77;98.51;99653.53;7354494;19;20005;-59
2022/11/03 08:29:47;;;;;;;;;;;;;;;13.74;98.56;99664.53;7359439;19;19943;-58
2022/11/03 08:32:15;;;;;;;;;;;;;;;13.73;98.52;99674.28;7360267;19;20896;-59
2022/11/03 08:34:41;;;;;;;;;;;;;;;13.76;98.84;99683.66;7360861;19;19951;-58
2022/11/03 08:37:09;;;;;;;;;;;;;;;13.77;98.80;99680.78;7361543;19;19938;-58
2022/11/03 08:39:36;;;;;;;;;;;;;;;13.80;98.50;99677.78;7360245;19;19918;-58
2022/11/03 08:42:03;;;;;;;;;;;;;;;13.79;98.22;99662.91;7359086;19;19926;-55
2022/11/03 08:44:30;;;;;;;;;;;;;;;13.74;97.59;99662.72;7360002;19;19926;-57
2022/11/03 08:46:57;;;;;;;;;;;;;;;13.76;98.30;99658.03;7359099;19;19933;-56
2022/11/03 08:52:42;;;;;;;;;;;;;;;13.82;98.60;99667.78;7361381;19;19935;-58
2022/11/03 08:55:09;;;;;;;;;;;;;;;13.78;97.73;99660.47;7361834;19;20035;-58
2022/11/03 08:57:36;;;;;;;;;;;;;;;13.79;99.38;99660.28;7359383;19;19918;-58
2022/11/03 09:00:04;;;;;;;;;;;;;;;13.84;99.67;99654.38;7362693;19;19914;-59
2022/11/03 09:02:32;;;;;;;;;;;;;;;13.87;98.88;99648.66;7365602;19;19926;-55
2022/11/03 09:04:59;;;;;;;;;;;;;;;13.84;98.25;99649.91;7358046;19;20167;-59
2022/11/03 09:07:26;;;;;;;;;;;;;;;13.84;98.08;99641.97;7365493;19;19961;-55
2022/11/03 09:10:13;;;;;;;;;;;;;;;13.81;97.19;99637.09;7359526;19;19926;-57
2022/11/03 09:12:43;;;;;;;;;;;;;;;13.78;97.42;99634.84;7360916;19;19922;-59
2022/11/03 09:15:10;;;;;;;;;;;;;;;13.81;98.38;99633.63;7358243;19;19917;-59
2022/11/03 09:17:37;;;;;;;;;;;;;;;13.81;98.20;99638.94;7360154;19;19922;-61
2022/11/03 09:20:09;;;;;;;;;;;;;;;13.83;98.12;99636.88;7360800;19;19919;-57
2022/11/03 09:22:36;;;;;;;;;;;;;;;13.82;97.86;99632.59;7361301;19;19915;-57
2022/11/03 09:25:03;;;;;;;;;;;;;;;13.81;97.49;99625.72;7356564;19;19951;-57
2022/11/03 09:27:33;;;;;;;;;;;;;;;13.78;97.51;99623.44;7359084;19;21206;-58
2022/11/03 09:30:00;;;;;;;;;;;;;;;13.78;97.47;99612.88;7357291;19;20220;-58
2022/11/03 09:32:42;;;;;;;;;;;;;;;13.75;97.40;99598.25;7357667;19;19923;-55
2022/11/03 09:35:11;;;;;;;;;;;;;;;13.73;96.68;99608.19;7359021;19;20894;-57
2022/11/03 09:37:38;;;;;;;;;;;;;;;13.70;96.77;99614.72;7360911;19;20503;-57
2022/11/03 09:40:06;;;;;;;;;;;;;;;13.71;97.29;99620.81;7360903;19;20966;-56
2022/11/03 09:42:33;;;;;;;;;;;;;;;13.75;97.77;99615.94;7356776;19;19933;-57
2022/11/03 09:45:00;;;;;;;;;;;;;;;13.70;96.80;99609.44;7357563;19;19922;-59
2022/11/03 09:47:32;;;;;;;;;;;;;;;13.69;96.56;99612.28;7358195;19;19918;-59
2022/11/03 09:49:59;;;;;;;;;;;;;;;13.68;96.87;99611.44;7360908;19;19986;-59
2022/11/03 09:52:27;;;;;;;;;;;;;;;13.70;97.03;99608.63;7359940;19;19934;-55
2022/11/03 09:54:55;;;;;;;;;;;;;;;13.69;96.86;99613.09;7358822;19;19926;-56
2022/11/03 09:57:22;;;;;;;;;;;;;;;13.65;97.25;99613.69;7358113;19;19919;-58
2022/11/03 09:59:50;;;;;;;;;;;;;;;13.64;97.24;99612.88;7357060;19;19923;-57
2022/11/03 10:02:25;;;;;;;;;;;;;;;13.66;97.97;99623.25;7357924;19;20333;-59
2022/11/03 10:04:54;;;;;;;;;;;;;;;13.67;97.94;99609.00;7363154;19;19926;-61
2022/11/03 10:07:23;;;;;;;;;;;;;;;13.70;97.97;99613.91;7360106;19;20346;-60
2022/11/03 10:09:51;;;;;;;;;;;;;;;13.66;97.56;99618.75;7358005;19;19940;-57
2022/11/03 10:12:18;;;;;;;;;;;;;;;13.67;97.76;99617.75;7359843;19;19922;-58
2022/11/03 10:14:46;;;;;;;;;;;;;;;13.70;97.71;99612.06;7357695;19;20527;-59
2022/11/03 10:17:17;;;;;;;;;;;;;;;13.70;97.14;99609.44;7360257;19;20311;-58
2022/11/03 10:19:48;;;;;;;;;;;;;;;13.69;97.03;99606.97;7363542;19;19956;-60
2022/11/03 10:22:15;;;;;;;;;;;;;;;13.69;96.23;99609.63;7361553;19;19957;-57
2022/11/03 10:24:42;;;;;;;;;;;;;;;13.74;96.73;99615.13;7358333;19;20336;-54
2022/11/03 10:27:19;;;;;;;;;;;;;;;13.76;96.44;99605.16;7357870;19;20352;-56
2022/11/03 10:30:03;;;;;;;;;;;;;;;13.75;96.32;99598.25;7355438;19;20435;-59
2022/11/03 10:32:32;;;;;;;;;;;;;;;13.72;96.04;99601.28;7361321;19;19982;-60
2022/11/03 10:34:59;;;;;;;;;;;;;;;13.71;96.16;99597.81;7351933;19;20378;-56
2022/11/03 10:37:27;;;;;;;;;;;;;;;13.69;96.28;99599.06;7357802;19;20002;-59
2022/11/03 10:39:55;;;;;;;;;;;;;;;13.71;96.46;99599.69;7358977;19;19959;-58
2022/11/03 10:42:24;;;;;;;;;;;;;;;13.73;96.92;99594.97;7356855;19;19987;-57
2022/11/03 10:45:05;;;;;;;;;;;;;;;13.74;96.55;99596.63;7360015;19;19937;-59
2022/11/03 10:47:33;;;;;;;;;;;;;;;13.75;96.59;99597.44;7368715;19;19925;-59
2022/11/03 10:50:15;;;;;;;;;;;;;;;13.74;96.71;99595.78;7363698;19;20375;-55
2022/11/03 10:52:42;;;;;;;;;;;;;;;13.70;96.11;99596.22;7365810;19;19939;-60
2022/11/03 10:55:10;;;;;;;;;;;;;;;13.69;95.70;99601.69;7368048;19;20336;-58
2022/11/03 10:57:37;;;;;;;;;;;;;;;13.67;95.38;99590.50;7361751;19;20426;-59
2022/11/03 11:00:04;;;;;;;;;;;;;;;13.65;95.58;99589.91;7364201;19;19939;-56
2022/11/03 11:02:35;;;;;;;;;;;;;;;13.67;96.12;99587.84;7364902;19;20262;-56
2022/11/03 11:05:09;;;;;;;;;;;;;;;13.65;96.35;99576.69;7362494;19;19919;-57
2022/11/03 11:07:38;;;;;;;;;;;;;;;13.64;96.63;99578.53;7366201;19;19915;-57
2022/11/03 11:10:05;;;;;;;;;;;;;;;13.64;96.38;99577.69;7365475;19;19919;-59
2022/11/03 11:12:32;;;;;;;;;;;;;;;13.63;96.56;99566.31;7364573;19;19930;-58
2022/11/03 11:15:01;;;;;;;;;;;;;;;13.65;96.26;99563.47;7363222;19;19914;-57
2022/11/03 11:17:38;;;;;;;;;;;;;;;13.68;96.57;99568.34;7366856;19;19935;-57
2022/11/03 11:20:22;;;;;;;;;;;;;;;13.69;95.44;99559.41;7364470;19;20082;-58
2022/11/03 11:22:50;;;;;;;;;;;;;;;13.71;96.12;99554.72;7366711;19;19930;-55
2022/11/03 11:25:17;;;;;;;;;;;;;;;13.74;96.92;99556.97;7360552;19;20300;-57
2022/11/03 11:27:44;;;;;;;;;;;;;;;13.73;96.35;99549.22;7362248;19;19953;-56
2022/11/03 11:30:15;;;;;;;;;;;;;;;13.71;96.26;99536.22;7362930;19;20733;-58
2022/11/03 11:32:56;;;;;;;;;;;;;;;13.71;96.23;99541.53;7365125;19;20509;-57
2022/11/03 11:35:23;;;;;;;;;;;;;;;13.69;96.09;99532.97;7364421;19;20014;-56
2022/11/03 11:37:51;;;;;;;;;;;;;;;13.70;96.13;99530.13;7367938;19;19918;-57
2022/11/03 11:40:25;;;;;;;;;;;;;;;13.69;95.41;99517.91;7364705;19;19919;-57
2022/11/03 11:43:02;;;;;;;;;;;;;;;13.64;94.08;99509.78;7362413;19;19926;-59
2022/11/03 11:45:40;;;;;;;;;;;;;;;13.62;93.00;99517.09;7360262;19;20604;-57
2022/11/03 11:48:16;;;;;;;;;;;;;;;13.65;93.41;99515.91;7366856;19;20277;-57
2022/11/03 11:50:44;;;;;;;;;;;;;;;13.66;93.42;99504.31;7364134;19;19948;-59
2022/11/03 11:53:13;;;;;;;;;;;;;;;13.64;92.95;99498.41;7365282;19;19914;-57
2022/11/03 11:55:42;;;;;;;;;;;;;;;13.66;93.49;99507.75;7362016;19;19927;-56
2022/11/03 11:58:14;;;;;;;;;;;;;;;13.70;94.26;99501.06;7364228;19;19921;-59
2022/11/03 12:00:50;;;;;;;;;;;;;;;13.75;94.38;99504.91;7366086;19;19922;-56
2022/11/03 12:03:21;;;;;;;;;;;;;;;13.82;94.68;99487.16;7362819;19;19935;-57
2022/11/03 12:05:49;;;;;;;;;;;;;;;13.84;94.81;99493.91;7359008;19;19926;-58
2022/11/03 12:08:17;;;;;;;;;;;;;;;13.86;94.28;99498.97;7362854;19;19944;-57
2022/11/03 12:10:54;;;;;;;;;;;;;;;13.91;94.01;99509.75;7363803;19;20340;-54
2022/11/03 12:13:42;;;;;;;;;;;;;;;13.92;93.09;99506.88;7361194;19;20352;-58
2022/11/03 12:16:25;;;;;;;;;;;;;;;13.93;92.23;99510.34;7362266;19;20239;-57
2022/11/03 12:18:52;;;;;;;;;;;;;;;13.95;92.09;99518.91;7362521;19;19918;-58
2022/11/03 12:21:29;;;;;;;;;;;;;;;13.98;92.69;99521.09;7364064;19;21493;-59
2022/11/03 12:23:56;;;;;;;;;;;;;;;14.00;92.89;99511.97;7363460;19;19926;-56
2022/11/03 12:26:24;;;;;;;;;;;;;;;14.05;93.18;99508.69;7356960;19;20403;-58
2022/11/03 12:28:51;;;;;;;;;;;;;;;14.03;92.25;99510.72;7335490;19;19919;-58
2022/11/03 12:31:18;;;;;;;;;;;;;;;14.01;91.21;99504.84;7356606;19;20741;-59
2022/11/03 12:33:45;;;;;;;;;;;;;;;14.01;91.43;99508.31;7351542;19;19954;-56
2022/11/03 12:36:12;;;;;;;;;;;;;;;14.03;91.95;99502.78;7350758;19;20890;-57
2022/11/03 12:38:41;;;;;;;;;;;;;;;14.00;91.25;99511.97;7353204;19;19923;-60
2022/11/03 12:43:45;;;;;;;;;;;;;;;13.96;89.88;99496.72;7359839;19;19951;-57
2022/11/03 12:46:12;;;;;;;;;;;;;;;13.99;89.70;99505.03;7357494;19;20037;-59
2022/11/03 12:48:42;;;;;;;;;;;;;;;14.03;89.91;99490.38;7360768;19;19925;-56
2022/11/03 12:51:11;;;;;;;;;;;;;;;14.07;89.76;99486.28;7359027;19;20022;-57
2022/11/03 12:53:39;;;;;;;;;;;;;;;14.12;91.10;99493.59;7358799;19;19922;-57
2022/11/03 12:56:07;;;;;;;;;;;;;;;14.14;90.69;99496.84;7357249;19;19952;-59
2022/11/03 12:58:34;;;;;;;;;;;;;;;14.11;89.16;99490.16;7356550;19;19925;-57
2022/11/03 13:01:02;;;;;;;;;;;;;;;14.08;88.34;99495.84;7361340;19;19922;-59
2022/11/03 13:03:30;;;;;;;;;;;;;;;14.07;88.24;99480.19;7358995;19;19926;-58
2022/11/03 13:05:57;;;;;;;;;;;;;;;14.08;88.36;99490.56;7358671;19;20357;-59
2022/11/03 13:08:25;;;;;;;;;;;;;;;14.14;88.46;99502.16;7356745;19;19923;-57
2022/11/03 13:10:52;;;;;;;;;;;;;;;14.14;87.35;99516.19;7358801;19;19926;-59
2022/11/03 13:13:19;;;;;;;;;;;;;;;14.11;86.79;99516.63;7359303;19;19923;-61
2022/11/03 13:15:46;;;;;;;;;;;;;;;14.05;86.26;99520.09;7361595;19;20013;-57
2022/11/03 13:18:13;;;;;;;;;;;;;;;14.05;87.10;99521.91;7359310;19;19919;-58
2022/11/03 13:20:40;;;;;;;;;;;;;;;14.06;87.37;99520.91;7359623;19;19922;-59